createdAt,value
2019-02-05T00:02:29.771Z,0.90
2019-02-05T00:05:00.051Z,1.00
2019-02-05T00:07:30.253Z,1.00
2019-02-05T00:09:59.961Z,1.00
2019-02-05T00:12:29.655Z,1.00
2019-02-05T00:14:59.371Z,0.90
2019-02-05T00:17:29.087Z,0.90
2019-02-05T00:19:58.781Z,0.90
2019-02-05T00:22:28.921Z,0.90
2019-02-05T00:24:58.590Z,0.80
2019-02-05T00:27:28.313Z,0.80
2019-02-05T00:29:58.017Z,0.80
2019-02-05T00:32:27.686Z,0.80
2019-02-05T00:34:57.369Z,0.80
2019-02-05T00:37:27.063Z,0.80
2019-02-05T00:39:57.115Z,0.80
2019-02-05T00:42:26.814Z,0.80
2019-02-05T00:44:56.503Z,0.70
2019-02-05T00:47:26.246Z,0.70
2019-02-05T00:49:56.456Z,0.70
2019-02-05T00:52:26.110Z,0.70
2019-02-05T00:54:55.813Z,0.70
2019-02-05T00:57:25.471Z,0.70
2019-02-05T00:59:55.115Z,0.70
2019-02-05T01:02:24.814Z,0.60
2019-02-05T01:04:55.356Z,0.60
2019-02-05T01:07:25.039Z,0.60
2019-02-05T01:09:54.808Z,0.60
2019-02-05T01:12:24.511Z,0.70
2019-02-05T01:14:54.194Z,0.70
2019-02-05T01:17:23.868Z,0.70
2019-02-05T01:19:53.572Z,0.70
2019-02-05T01:22:23.261Z,0.70
2019-02-05T01:24:52.999Z,0.70
2019-02-05T01:27:23.111Z,0.70
2019-02-05T01:29:52.783Z,0.70
2019-02-05T01:32:22.957Z,0.70
2019-02-05T01:34:52.634Z,0.70
2019-02-05T01:37:22.303Z,0.70
2019-02-05T01:39:52.054Z,0.80
2019-02-05T01:42:21.856Z,0.90
2019-02-05T01:44:51.525Z,0.80
2019-02-05T01:47:21.855Z,0.80
2019-02-05T01:49:51.553Z,0.80
2019-02-05T01:52:21.243Z,0.80
2019-02-05T01:54:50.952Z,0.70
2019-02-05T01:57:20.628Z,0.70
2019-02-05T01:59:50.396Z,0.80
2019-02-05T02:02:20.189Z,0.80
2019-02-05T02:04:49.902Z,0.70
2019-02-05T02:07:19.618Z,0.70
2019-02-05T02:09:49.323Z,0.70
2019-02-05T02:12:18.946Z,0.60
2019-02-05T02:14:48.647Z,0.60
2019-02-05T02:17:18.342Z,0.60
2019-02-05T02:19:48.051Z,0.60
2019-02-05T02:22:17.729Z,0.50
2019-02-05T02:24:47.385Z,0.50
2019-02-05T02:27:17.069Z,0.60
2019-02-05T02:29:46.727Z,0.60
2019-02-05T02:32:16.439Z,0.60
2019-02-05T02:34:46.107Z,0.70
2019-02-05T02:37:15.757Z,0.70
2019-02-05T02:39:45.573Z,0.80
2019-02-05T02:42:15.230Z,0.70
2019-02-05T02:44:45.578Z,0.70
2019-02-05T02:47:15.302Z,0.70
2019-02-05T02:49:44.948Z,0.80
2019-02-05T02:52:14.645Z,0.80
2019-02-05T02:54:44.304Z,0.80
2019-02-05T02:57:13.954Z,0.80
2019-02-05T02:59:44.074Z,0.80
2019-02-05T03:02:13.779Z,0.80
2019-02-05T03:04:43.805Z,0.80
2019-02-05T03:07:13.483Z,0.80
2019-02-05T03:09:43.136Z,0.70
2019-02-05T03:12:12.858Z,0.70
2019-02-05T03:14:42.904Z,0.70
2019-02-05T03:17:12.602Z,0.70
2019-02-05T03:19:42.288Z,0.70
2019-02-05T03:22:11.956Z,0.70
2019-02-05T03:24:41.607Z,0.70
2019-02-05T03:27:17.912Z,0.80
2019-02-05T03:29:42.579Z,0.70
2019-02-05T03:32:12.888Z,0.70
2019-02-05T03:34:42.568Z,0.70
2019-02-05T03:37:12.534Z,0.70
2019-02-05T03:39:42.213Z,0.80
2019-02-05T03:42:12.450Z,0.80
2019-02-05T03:44:42.112Z,0.80
2019-02-05T03:47:11.869Z,0.80
2019-02-05T03:49:41.892Z,0.70
2019-02-05T03:52:18.893Z,0.70
2019-02-05T03:55:13.951Z,0.70
2019-02-05T03:58:30.585Z,0.70
2019-02-05T04:01:43.938Z,0.70
2019-02-05T04:04:55.557Z,0.70
2019-02-05T04:08:13.593Z,0.70
2019-02-05T04:11:16.818Z,0.80
2019-02-05T04:14:18.870Z,0.70
2019-02-05T04:17:30.795Z,0.70
2019-02-05T04:20:31.388Z,0.70
2019-02-05T04:23:37.503Z,0.70
2019-02-05T04:26:26.535Z,0.70
2019-02-05T04:29:25.632Z,0.70
2019-02-05T04:32:26.438Z,0.70
2019-02-05T04:35:51.813Z,0.70
2019-02-05T04:39:05.445Z,0.70
2019-02-05T04:42:13.150Z,0.60
2019-02-05T04:45:44.590Z,0.60
2019-02-05T04:48:57.054Z,0.60
2019-02-05T04:52:05.218Z,0.60
2019-02-05T04:55:30.450Z,0.70
2019-02-05T04:58:36.312Z,0.70
2019-02-05T05:01:47.127Z,0.70
2019-02-05T05:05:06.914Z,0.70
2019-02-05T05:08:12.972Z,0.70
2019-02-05T05:10:42.657Z,0.70
2019-02-05T05:13:12.310Z,0.70
2019-02-05T05:15:41.998Z,0.70
2019-02-05T05:18:15.312Z,0.70
2019-02-05T05:20:44.318Z,0.80
2019-02-05T05:23:14.126Z,0.70
2019-02-05T05:25:43.996Z,0.60
2019-02-05T05:28:13.723Z,0.60
2019-02-05T05:30:43.508Z,0.60
2019-02-05T05:33:13.895Z,0.50
2019-02-05T05:35:44.576Z,0.60
2019-02-05T05:38:14.341Z,0.50
2019-02-05T05:40:43.982Z,0.60
2019-02-05T05:43:13.805Z,0.60
2019-02-05T05:45:43.487Z,0.60
2019-02-05T05:48:13.693Z,0.60
2019-02-05T05:50:43.397Z,0.60
2019-02-05T05:53:13.069Z,0.60
2019-02-05T05:55:42.791Z,0.70
2019-02-05T05:58:22.267Z,0.70
2019-02-05T06:00:44.041Z,0.70
2019-02-05T06:03:14.161Z,0.60
2019-02-05T06:05:43.835Z,0.60
2019-02-05T06:08:13.531Z,0.60
2019-02-05T06:10:43.273Z,0.60
2019-02-05T06:13:12.956Z,0.60
2019-02-05T06:15:42.666Z,0.60
2019-02-05T06:18:12.457Z,0.70
2019-02-05T06:20:42.326Z,0.60
2019-02-05T06:23:12.004Z,0.60
2019-02-05T06:25:41.770Z,0.60
2019-02-05T06:28:11.429Z,0.60
2019-02-05T06:30:41.150Z,0.70
2019-02-05T06:33:10.872Z,0.70
2019-02-05T06:35:40.627Z,0.70
2019-02-05T06:38:10.339Z,0.70
2019-02-05T06:40:40.016Z,0.60
2019-02-05T06:43:09.944Z,0.60
2019-02-05T06:45:41.590Z,0.60
2019-02-05T06:48:11.546Z,0.70
2019-02-05T06:50:41.537Z,0.80
2019-02-05T06:53:11.406Z,0.80
2019-02-05T06:55:41.315Z,0.80
2019-02-05T06:58:11.257Z,0.80
2019-02-05T07:00:41.098Z,0.90
2019-02-05T07:03:11.271Z,0.90
2019-02-05T07:05:42.330Z,0.90
2019-02-05T07:08:12.195Z,1.00
2019-02-05T07:10:42.146Z,1.10
2019-02-05T07:13:12.005Z,1.10
2019-02-05T07:15:41.914Z,1.10
2019-02-05T07:18:11.785Z,1.10
2019-02-05T07:20:41.625Z,1.10
2019-02-05T07:23:11.561Z,1.10
2019-02-05T07:25:41.499Z,1.20
2019-02-05T07:28:11.376Z,1.20
2019-02-05T07:30:41.235Z,1.20
2019-02-05T07:33:11.102Z,1.30
2019-02-05T07:35:41.296Z,1.30
2019-02-05T07:38:11.153Z,1.30
2019-02-05T07:40:41.003Z,1.30
2019-02-05T07:43:10.911Z,1.30
2019-02-05T07:45:40.858Z,1.30
2019-02-05T07:48:10.916Z,1.40
2019-02-05T07:50:41.444Z,1.40
2019-02-05T07:53:11.590Z,1.50
2019-02-05T07:55:41.446Z,1.50
2019-02-05T07:58:11.390Z,1.50
2019-02-05T08:00:41.341Z,1.50
2019-02-05T08:03:11.201Z,1.50
2019-02-05T08:05:41.123Z,1.40
2019-02-05T08:08:11.698Z,1.40
2019-02-05T08:10:41.691Z,1.40
2019-02-05T08:13:11.672Z,1.50
2019-02-05T08:15:41.639Z,1.50
2019-02-05T08:18:11.527Z,1.60
2019-02-05T08:20:41.425Z,1.60
2019-02-05T08:23:11.384Z,1.60
2019-02-05T08:25:42.002Z,1.60
2019-02-05T08:28:11.570Z,1.70
2019-02-05T08:30:44.930Z,1.60
2019-02-05T08:33:14.872Z,1.60
2019-02-05T08:35:45.032Z,1.60
2019-02-05T08:38:15.169Z,1.60
2019-02-05T08:40:45.719Z,1.50
2019-02-05T08:43:15.645Z,1.70
2019-02-05T08:45:56.015Z,1.70
2019-02-05T08:48:17.060Z,1.70
2019-02-05T08:50:47.202Z,1.70
2019-02-05T08:53:17.077Z,1.70
2019-02-05T08:55:47.140Z,1.70
2019-02-05T08:58:17.859Z,1.70
2019-02-05T09:00:47.717Z,1.70
2019-02-05T09:03:17.536Z,1.70
2019-02-05T09:05:47.425Z,1.70
2019-02-05T09:08:18.418Z,1.80
2019-02-05T09:10:48.417Z,1.80
2019-02-05T09:13:21.440Z,1.80
2019-02-05T09:15:51.389Z,1.80
2019-02-05T09:18:21.726Z,1.80
2019-02-05T09:20:51.768Z,1.90
2019-02-05T09:23:21.671Z,1.90
2019-02-05T09:25:51.955Z,1.90
2019-02-05T09:28:21.909Z,1.90
2019-02-05T09:30:51.801Z,1.90
2019-02-05T09:33:21.647Z,2.00
2019-02-05T09:35:51.627Z,2.00
2019-02-05T09:38:21.565Z,2.00
2019-02-05T09:40:51.474Z,2.00
2019-02-05T09:43:21.755Z,2.10
2019-02-05T09:45:51.743Z,2.10
2019-02-05T09:48:23.107Z,2.20
2019-02-05T09:50:53.143Z,2.30
2019-02-05T09:53:23.549Z,2.40
2019-02-05T09:55:53.386Z,2.50
2019-02-05T09:58:25.057Z,2.50
2019-02-05T10:00:59.594Z,2.40
2019-02-05T10:03:28.216Z,2.50
2019-02-05T10:05:58.131Z,2.50
2019-02-05T10:08:28.081Z,2.50
2019-02-05T10:10:59.475Z,2.50
2019-02-05T10:13:29.424Z,2.50
2019-02-05T10:15:59.385Z,2.40
2019-02-05T10:18:29.439Z,2.40
2019-02-05T10:20:59.427Z,2.40
2019-02-05T10:23:29.407Z,2.40
2019-02-05T10:25:59.547Z,2.20
2019-02-05T10:28:29.710Z,2.20
2019-02-05T10:30:59.569Z,2.20
2019-02-05T10:33:29.503Z,2.30
2019-02-05T10:36:01.333Z,2.30
2019-02-05T10:38:31.115Z,2.30
2019-02-05T10:41:01.105Z,2.30
2019-02-05T10:43:31.193Z,2.40
2019-02-05T10:46:01.047Z,2.40
2019-02-05T10:48:30.943Z,2.40
2019-02-05T10:51:00.780Z,2.40
2019-02-05T10:53:30.710Z,2.50
2019-02-05T10:56:03.752Z,2.60
2019-02-05T10:58:35.017Z,2.50
2019-02-05T11:01:05.573Z,2.50
2019-02-05T11:03:35.436Z,2.40
2019-02-05T11:06:05.597Z,2.50
2019-02-05T11:08:35.501Z,2.60
2019-02-05T11:11:05.442Z,2.70
2019-02-05T11:13:35.858Z,2.80
2019-02-05T11:16:05.939Z,2.90
2019-02-05T11:18:36.448Z,3.00
2019-02-05T11:21:06.436Z,3.00
2019-02-05T11:23:36.284Z,3.10
2019-02-05T11:26:06.363Z,3.30
2019-02-05T11:28:36.744Z,3.40
2019-02-05T11:31:06.748Z,3.50
2019-02-05T11:33:38.263Z,3.60
2019-02-05T11:36:08.233Z,3.90
2019-02-05T11:38:38.161Z,4.10
2019-02-05T11:41:08.086Z,4.30
2019-02-05T11:43:38.531Z,4.60
2019-02-05T11:46:08.507Z,4.70
2019-02-05T11:48:38.347Z,4.70
2019-02-05T11:51:10.753Z,4.60
2019-02-05T11:53:40.643Z,4.50
2019-02-05T11:56:11.840Z,4.40
2019-02-05T11:58:42.503Z,4.30
2019-02-05T12:01:16.755Z,4.20
2019-02-05T12:03:46.962Z,4.00
2019-02-05T12:06:18.459Z,3.80
2019-02-05T12:08:48.297Z,3.70
2019-02-05T12:11:18.223Z,3.60
2019-02-05T12:13:48.721Z,3.70
2019-02-05T12:16:19.660Z,3.70
2019-02-05T12:18:49.707Z,3.70
2019-02-05T12:21:19.599Z,3.70
2019-02-05T12:23:49.557Z,3.80
2019-02-05T12:26:20.535Z,3.80
2019-02-05T12:28:51.077Z,3.80
2019-02-05T12:31:20.943Z,3.80
2019-02-05T12:33:52.136Z,3.80
2019-02-05T12:36:22.314Z,3.80
2019-02-05T12:38:52.197Z,3.90
2019-02-05T12:41:22.188Z,3.90
2019-02-05T12:43:52.542Z,3.90
2019-02-05T12:46:22.427Z,3.70
2019-02-05T12:48:52.687Z,3.70
2019-02-05T12:51:22.678Z,3.50
2019-02-05T12:53:52.704Z,3.30
2019-02-05T12:56:22.594Z,3.30
2019-02-05T12:58:52.709Z,3.30
2019-02-05T13:01:22.677Z,3.30
2019-02-05T13:03:55.377Z,3.30
2019-02-05T13:06:25.338Z,3.30
2019-02-05T13:08:55.297Z,3.40
2019-02-05T13:11:25.225Z,3.50
2019-02-05T13:13:55.311Z,3.40
2019-02-05T13:16:25.282Z,3.40
2019-02-05T13:19:06.867Z,3.40
2019-02-05T13:21:36.947Z,3.40
2019-02-05T13:24:09.945Z,3.40
2019-02-05T13:26:39.831Z,3.40
2019-02-05T13:29:10.785Z,3.40
2019-02-05T13:31:40.644Z,3.30
2019-02-05T13:34:19.716Z,3.30
2019-02-05T13:36:49.551Z,3.40
2019-02-05T13:39:19.421Z,3.40
2019-02-05T13:41:49.337Z,3.50
2019-02-05T13:44:19.169Z,3.70
2019-02-05T13:46:49.031Z,4.00
2019-02-05T13:49:19.422Z,4.10
2019-02-05T13:51:50.667Z,4.20
2019-02-05T13:54:20.597Z,4.20
2019-02-05T13:56:50.514Z,4.20
2019-02-05T13:59:21.939Z,4.00
2019-02-05T14:01:52.048Z,3.80
2019-02-05T14:04:21.938Z,3.80
2019-02-05T14:06:52.193Z,3.80
2019-02-05T14:09:22.106Z,3.80
2019-02-05T14:11:52.101Z,3.80
2019-02-05T14:14:21.976Z,3.70
2019-02-05T14:16:51.930Z,3.60
2019-02-05T14:19:21.906Z,3.50
2019-02-05T14:21:51.789Z,3.40
2019-02-05T14:24:22.724Z,3.30
2019-02-05T14:26:52.665Z,3.20
2019-02-05T14:29:23.492Z,3.20
2019-02-05T14:31:53.706Z,3.20
2019-02-05T14:34:24.238Z,3.20
2019-02-05T14:36:55.548Z,3.10
2019-02-05T14:39:25.447Z,3.00
2019-02-05T14:41:55.334Z,3.00
2019-02-05T14:44:25.889Z,3.00
2019-02-05T14:46:56.955Z,2.90
2019-02-05T14:49:26.865Z,2.80
2019-02-05T14:52:01.076Z,2.90
2019-02-05T14:54:30.987Z,2.90
2019-02-05T14:57:00.870Z,2.90
2019-02-05T14:59:31.278Z,2.90
2019-02-05T15:02:01.177Z,2.90
2019-02-05T15:04:31.022Z,2.90
2019-02-05T15:07:01.045Z,2.80
2019-02-05T15:09:30.906Z,2.70
2019-02-05T15:12:01.242Z,2.70
2019-02-05T15:14:31.133Z,2.60
2019-02-05T15:17:01.019Z,2.70
2019-02-05T15:19:30.976Z,2.60
2019-02-05T15:22:00.889Z,2.60
2019-02-05T15:24:37.426Z,2.50
2019-02-05T15:27:02.481Z,2.50
2019-02-05T15:29:32.663Z,2.50
2019-02-05T15:32:02.680Z,2.40
2019-02-05T15:34:32.556Z,2.40
2019-02-05T15:37:02.510Z,2.40
2019-02-05T15:39:32.413Z,2.40
2019-02-05T15:42:02.408Z,2.40
2019-02-05T15:44:32.295Z,2.30
2019-02-05T15:47:02.206Z,2.30
2019-02-05T15:49:32.054Z,2.20
2019-02-05T15:52:03.831Z,2.10
2019-02-05T15:54:36.784Z,2.10
2019-02-05T15:57:06.782Z,2.10
2019-02-05T15:59:36.659Z,2.00
2019-02-05T16:02:06.881Z,2.10
2019-02-05T16:04:36.823Z,2.10
2019-02-05T16:07:06.887Z,2.10
2019-02-05T16:09:36.744Z,2.10
2019-02-05T16:12:06.851Z,2.10
2019-02-05T16:14:36.723Z,2.10
2019-02-05T16:17:06.657Z,2.10
2019-02-05T16:19:36.657Z,2.10
2019-02-05T16:22:06.628Z,2.00
2019-02-05T16:24:36.498Z,2.00
2019-02-05T16:27:06.518Z,1.90
2019-02-05T16:29:36.417Z,2.00
2019-02-05T16:32:17.032Z,2.00
2019-02-05T16:34:38.283Z,2.00
2019-02-05T16:37:08.858Z,2.00
2019-02-05T16:39:38.767Z,2.00
2019-02-05T16:42:08.611Z,2.00
2019-02-05T16:44:38.475Z,1.90
2019-02-05T16:47:08.352Z,2.00
2019-02-05T16:49:38.286Z,2.00
2019-02-05T16:52:08.830Z,2.00
2019-02-05T16:54:38.730Z,2.00
2019-02-05T16:57:08.615Z,2.00
2019-02-05T16:59:38.477Z,2.00
2019-02-05T17:02:08.770Z,2.00
2019-02-05T17:04:38.888Z,2.00
2019-02-05T17:07:09.150Z,2.00
2019-02-05T17:09:39.080Z,1.90
2019-02-05T17:12:08.998Z,1.90
2019-02-05T17:14:38.951Z,1.90
2019-02-05T17:17:08.860Z,1.90
2019-02-05T17:19:39.118Z,1.90
2019-02-05T17:22:09.137Z,1.90
2019-02-05T17:24:39.181Z,1.80
2019-02-05T17:27:09.126Z,1.80
2019-02-05T17:29:40.872Z,1.70
2019-02-05T17:32:10.583Z,1.60
2019-02-05T17:34:40.891Z,1.60
2019-02-05T17:37:10.759Z,1.50
2019-02-05T17:39:40.630Z,1.50
2019-02-05T17:42:10.909Z,1.60
2019-02-05T17:44:41.210Z,1.60
2019-02-05T17:47:11.161Z,1.60
2019-02-05T17:49:41.037Z,1.60
2019-02-05T17:52:10.932Z,1.60
2019-02-05T17:54:40.792Z,1.70
2019-02-05T17:57:10.678Z,1.70
2019-02-05T17:59:40.591Z,1.70
2019-02-05T18:02:11.157Z,1.70
2019-02-05T18:04:41.024Z,1.70
2019-02-05T18:07:10.904Z,1.70
2019-02-05T18:09:40.739Z,1.60
2019-02-05T18:12:10.643Z,1.60
2019-02-05T18:14:40.486Z,1.70
2019-02-05T18:17:11.154Z,1.60
2019-02-05T18:19:41.014Z,1.60
2019-02-05T18:22:11.536Z,1.70
2019-02-05T18:24:41.399Z,1.70
2019-02-05T18:27:11.395Z,1.70
2019-02-05T18:29:42.218Z,1.70
2019-02-05T18:32:14.527Z,1.70
2019-02-05T18:34:44.403Z,1.70
2019-02-05T18:37:14.286Z,1.70
2019-02-05T18:39:44.904Z,1.70
2019-02-05T18:42:14.777Z,1.60
2019-02-05T18:44:48.001Z,1.60
2019-02-05T18:47:16.730Z,1.60
2019-02-05T18:49:46.685Z,1.60
2019-02-05T18:52:17.516Z,1.60
2019-02-05T18:54:47.373Z,1.60
2019-02-05T18:57:17.247Z,1.50
2019-02-05T18:59:47.163Z,1.50
2019-02-05T19:02:17.155Z,1.50
2019-02-05T19:04:48.218Z,1.40
2019-02-05T19:07:18.106Z,1.30
2019-02-05T19:09:48.010Z,1.30
2019-02-05T19:12:18.458Z,1.20
2019-02-05T19:14:48.361Z,1.20
2019-02-05T19:17:18.354Z,1.10
2019-02-05T19:19:48.721Z,1.10
2019-02-05T19:22:21.127Z,1.10
2019-02-05T19:25:02.689Z,1.10
2019-02-05T19:27:32.573Z,1.00
2019-02-05T19:30:02.567Z,1.10
2019-02-05T19:32:32.427Z,1.10
2019-02-05T19:35:02.271Z,1.10
2019-02-05T19:37:32.360Z,1.10
2019-02-05T19:40:02.238Z,1.10
2019-02-05T19:42:32.099Z,1.10
2019-02-05T19:45:15.163Z,1.00
2019-02-05T19:47:45.017Z,1.00
2019-02-05T19:50:15.140Z,1.00
2019-02-05T19:52:45.509Z,1.00
2019-02-05T19:55:15.682Z,1.00
2019-02-05T19:57:46.466Z,1.00
2019-02-05T20:00:16.517Z,1.00
2019-02-05T20:02:46.459Z,1.00
2019-02-05T20:05:17.466Z,1.10
2019-02-05T20:07:47.430Z,1.10
2019-02-05T20:10:17.639Z,1.10
2019-02-05T20:12:47.569Z,1.10
2019-02-05T20:15:19.605Z,1.10
2019-02-05T20:17:49.145Z,1.20
2019-02-05T20:20:19.238Z,1.10
2019-02-05T20:22:50.226Z,1.20
2019-02-05T20:25:20.818Z,1.20
2019-02-05T20:27:50.875Z,1.20
2019-02-05T20:30:21.074Z,1.20
2019-02-05T20:32:51.283Z,1.20
2019-02-05T20:35:21.182Z,1.20
2019-02-05T20:37:51.760Z,1.20
2019-02-05T20:40:21.957Z,1.20
2019-02-05T20:42:52.001Z,1.30
2019-02-05T20:45:22.150Z,1.30
2019-02-05T20:47:52.111Z,1.30
2019-02-05T20:50:22.011Z,1.20
2019-02-05T20:52:52.701Z,1.20
2019-02-05T20:55:22.825Z,1.20
2019-02-05T20:57:52.929Z,1.20
2019-02-05T21:00:23.215Z,1.20
2019-02-05T21:02:54.717Z,1.30
2019-02-05T21:05:24.585Z,1.30
2019-02-05T21:07:54.515Z,1.30
2019-02-05T21:10:24.905Z,1.30
2019-02-05T21:12:55.070Z,1.30
2019-02-05T21:15:26.048Z,1.30
2019-02-05T21:17:56.015Z,1.30
2019-02-05T21:20:29.209Z,1.30
2019-02-05T21:23:01.164Z,1.30
2019-02-05T21:25:31.693Z,1.20
2019-02-05T21:28:01.614Z,1.30
2019-02-05T21:30:31.480Z,1.40
2019-02-05T21:33:01.342Z,1.30
2019-02-05T21:35:31.303Z,1.30
2019-02-05T21:38:01.679Z,1.30
2019-02-05T21:40:31.796Z,1.30
2019-02-05T21:43:01.880Z,1.30
2019-02-05T21:45:31.811Z,1.30
2019-02-05T21:48:01.642Z,1.30
2019-02-05T21:50:31.544Z,1.30
2019-02-05T21:53:01.884Z,1.30
2019-02-05T21:55:31.976Z,1.40
2019-02-05T21:58:01.859Z,1.40
2019-02-05T22:00:32.904Z,1.40
2019-02-05T22:03:02.816Z,1.30
2019-02-05T22:05:32.929Z,1.30
2019-02-05T22:08:03.852Z,1.40
2019-02-05T22:10:33.937Z,1.40
2019-02-05T22:13:07.127Z,1.40
2019-02-05T22:15:36.035Z,1.40
2019-02-05T22:18:06.097Z,1.40
2019-02-05T22:20:36.060Z,1.40
2019-02-05T22:23:06.257Z,1.40
2019-02-05T22:25:36.150Z,1.40
2019-02-05T22:28:06.802Z,1.40
2019-02-05T22:30:37.187Z,1.40
2019-02-05T22:33:08.583Z,1.40
2019-02-05T22:35:39.151Z,1.30
2019-02-05T22:38:09.059Z,1.40
2019-02-05T22:40:39.000Z,1.40
2019-02-05T22:43:09.641Z,1.40
2019-02-05T22:45:41.104Z,1.40
2019-02-05T22:48:11.471Z,1.40
2019-02-05T22:50:41.417Z,1.40
2019-02-05T22:53:11.341Z,1.40
2019-02-05T22:55:41.643Z,1.40
2019-02-05T22:58:11.715Z,1.40
2019-02-05T23:01:15.901Z,1.50
2019-02-05T23:03:57.121Z,1.40
2019-02-05T23:06:44.618Z,1.40
2019-02-05T23:09:24.121Z,1.40
2019-02-05T23:12:29.483Z,1.30
2019-02-05T23:15:03.262Z,1.30
2019-02-05T23:17:33.139Z,1.40
2019-02-05T23:20:03.086Z,1.40
2019-02-05T23:22:33.502Z,1.40
2019-02-05T23:25:04.298Z,1.50
2019-02-05T23:27:34.284Z,1.50
2019-02-05T23:30:04.325Z,1.40
2019-02-05T23:32:34.190Z,1.40
2019-02-05T23:35:04.128Z,1.40
2019-02-05T23:37:34.107Z,1.40
2019-02-05T23:40:05.308Z,1.40
2019-02-05T23:42:35.189Z,1.40
2019-02-05T23:45:06.580Z,1.40
2019-02-05T23:47:36.459Z,1.50
2019-02-05T23:50:10.035Z,1.50
2019-02-05T23:52:39.974Z,1.50
2019-02-05T23:55:11.946Z,1.50
2019-02-05T23:57:41.903Z,1.50
